createdAt,value
2022-12-23T00:00:45.435Z,85.10
2022-12-23T00:03:12.713Z,85.10
2022-12-23T00:05:40.797Z,85.10
2022-12-23T00:08:08.344Z,85.20
2022-12-23T00:10:39.663Z,85.30
2022-12-23T00:13:26.728Z,85.20
2022-12-23T00:16:13.122Z,85.30
2022-12-23T00:18:41.055Z,85.20
2022-12-23T00:21:15.014Z,85.30
2022-12-23T00:23:46.388Z,85.50
2022-12-23T00:26:20.558Z,85.40
2022-12-23T00:28:47.951Z,85.40
2022-12-23T00:31:18.640Z,85.30
2022-12-23T00:33:49.406Z,85.50
2022-12-23T00:36:30.835Z,85.50
2022-12-23T00:39:17.713Z,85.60
2022-12-23T00:42:03.758Z,85.80
2022-12-23T00:44:31.157Z,85.90
2022-12-23T00:46:58.541Z,85.60
2022-12-23T00:49:44.037Z,85.60
2022-12-23T00:52:15.559Z,85.40
2022-12-23T00:54:43.101Z,85.30
2022-12-23T00:57:10.823Z,85.40
2022-12-23T00:59:38.010Z,85.30
2022-12-23T01:02:24.074Z,85.30
2022-12-23T01:05:09.537Z,85.30
2022-12-23T01:07:36.654Z,85.40
2022-12-23T01:10:04.445Z,85.60
2022-12-23T01:12:31.572Z,85.60
2022-12-23T01:14:58.681Z,85.70
2022-12-23T01:17:25.800Z,85.60
2022-12-23T01:19:53.135Z,85.70
2022-12-23T01:22:20.270Z,85.70
2022-12-23T01:24:47.381Z,85.80
2022-12-23T01:27:14.506Z,85.90
2022-12-23T01:29:41.570Z,85.90
2022-12-23T01:32:08.754Z,85.80
2022-12-23T01:34:37.533Z,85.50
2022-12-23T01:37:05.443Z,85.20
2022-12-23T01:39:32.671Z,85.00
2022-12-23T01:42:18.582Z,84.90
2022-12-23T01:45:02.665Z,85.10
2022-12-23T01:47:46.200Z,84.90
2022-12-23T01:50:20.286Z,85.00
2022-12-23T01:53:08.318Z,85.00
2022-12-23T01:55:59.752Z,85.10
2022-12-23T01:58:38.941Z,85.20
2022-12-23T02:01:25.660Z,85.20
2022-12-23T02:03:58.177Z,85.40
2022-12-23T02:06:56.377Z,85.00
2022-12-23T02:09:33.564Z,85.10
2022-12-23T02:12:37.617Z,84.80
2022-12-23T02:15:52.836Z,85.00
2022-12-23T02:18:44.759Z,85.30
2022-12-23T02:21:45.358Z,85.60
2022-12-23T02:24:46.550Z,86.00
2022-12-23T02:27:30.598Z,86.20
2022-12-23T02:30:39.452Z,86.40
2022-12-23T02:33:28.323Z,86.40
2022-12-23T02:36:01.189Z,86.50
2022-12-23T02:38:34.721Z,86.40
2022-12-23T02:41:23.179Z,86.40
2022-12-23T02:43:58.183Z,86.30
2022-12-23T02:46:37.065Z,86.30
2022-12-23T02:49:15.465Z,86.00
2022-12-23T02:51:49.400Z,86.10
2022-12-23T02:54:23.321Z,86.30
2022-12-23T02:56:52.798Z,86.30
2022-12-23T02:59:36.229Z,85.90
2022-12-23T03:02:03.636Z,86.20
2022-12-23T03:04:30.930Z,86.40
2022-12-23T03:07:04.315Z,86.40
2022-12-23T03:09:51.920Z,86.50
2022-12-23T03:13:20.487Z,86.20
2022-12-23T03:16:20.596Z,86.30
2022-12-23T03:19:06.547Z,86.20
2022-12-23T03:22:07.456Z,86.30
2022-12-23T03:24:53.550Z,86.30
2022-12-23T03:27:36.422Z,86.10
2022-12-23T03:30:03.505Z,85.90
2022-12-23T03:32:38.155Z,86.00
2022-12-23T03:35:08.615Z,86.20
2022-12-23T03:37:40.923Z,86.00
2022-12-23T03:40:17.060Z,86.20
2022-12-23T03:42:50.234Z,86.30
2022-12-23T03:45:38.762Z,86.30
2022-12-23T03:48:17.541Z,86.40
2022-12-23T03:50:47.756Z,86.60
2022-12-23T03:53:31.143Z,86.80
2022-12-23T03:56:10.054Z,86.80
2022-12-23T03:58:52.941Z,86.80
2022-12-23T04:01:41.609Z,86.70
2022-12-23T04:04:26.539Z,86.50
2022-12-23T04:07:30.807Z,86.60
2022-12-23T04:09:59.030Z,86.60
2022-12-23T04:12:27.869Z,86.50
2022-12-23T04:14:55.004Z,86.30
2022-12-23T04:17:22.356Z,86.40
2022-12-23T04:19:50.840Z,86.20
2022-12-23T04:22:17.920Z,86.20
2022-12-23T04:24:45.189Z,86.10
2022-12-23T04:27:16.652Z,86.10
2022-12-23T04:29:44.296Z,86.30
2022-12-23T04:32:11.449Z,86.40
2022-12-23T04:34:38.543Z,86.50
2022-12-23T04:37:05.640Z,86.20
2022-12-23T04:39:32.892Z,86.20
2022-12-23T04:42:00.353Z,86.30
2022-12-23T04:44:27.451Z,86.60
2022-12-23T04:46:54.638Z,86.40
2022-12-23T04:49:21.723Z,86.30
2022-12-23T04:51:48.860Z,86.10
2022-12-23T04:54:16.217Z,86.00
2022-12-23T04:56:43.290Z,86.10
2022-12-23T04:59:11.193Z,85.90
2022-12-23T05:01:38.683Z,85.80
2022-12-23T05:04:06.033Z,86.00
2022-12-23T05:06:33.261Z,86.10
2022-12-23T05:09:00.361Z,86.20
2022-12-23T05:11:27.755Z,86.30
2022-12-23T05:13:54.950Z,86.10
2022-12-23T05:16:22.529Z,86.00
2022-12-23T05:18:49.732Z,86.10
2022-12-23T05:21:17.680Z,85.90
2022-12-23T05:23:44.817Z,86.20
2022-12-23T05:26:11.969Z,86.30
2022-12-23T05:28:39.471Z,86.40
2022-12-23T05:31:08.424Z,86.30
2022-12-23T05:33:35.981Z,86.40
2022-12-23T05:36:03.448Z,86.40
2022-12-23T05:38:30.850Z,86.40
2022-12-23T05:40:58.211Z,86.50
2022-12-23T05:43:25.425Z,86.60
2022-12-23T05:45:53.048Z,86.70
2022-12-23T05:48:20.199Z,86.50
2022-12-23T05:50:51.397Z,86.30
2022-12-23T05:53:19.577Z,86.20
2022-12-23T05:55:47.172Z,86.10
2022-12-23T05:58:14.710Z,86.20
2022-12-23T06:00:41.909Z,86.00
2022-12-23T06:03:09.304Z,86.20
2022-12-23T06:05:38.910Z,86.30
2022-12-23T06:08:06.537Z,86.50
2022-12-23T06:10:33.712Z,86.60
2022-12-23T06:13:00.788Z,86.60
2022-12-23T06:15:27.908Z,86.60
2022-12-23T06:17:56.328Z,86.80
2022-12-23T06:20:23.441Z,86.80
2022-12-23T06:22:50.593Z,86.70
2022-12-23T06:25:18.035Z,86.60
2022-12-23T06:27:45.173Z,86.60
2022-12-23T06:30:13.092Z,86.70
2022-12-23T06:32:40.878Z,86.50
2022-12-23T06:35:09.057Z,86.80
2022-12-23T06:37:36.285Z,86.60
2022-12-23T06:40:04.068Z,86.70
2022-12-23T06:42:31.267Z,86.90
2022-12-23T06:44:58.420Z,86.80
2022-12-23T06:47:25.479Z,86.80
2022-12-23T06:49:52.581Z,86.80
2022-12-23T06:52:19.732Z,86.50
2022-12-23T06:54:46.849Z,86.60
2022-12-23T06:57:13.943Z,86.40
2022-12-23T06:59:41.110Z,86.30
2022-12-23T07:02:11.817Z,86.40
2022-12-23T07:04:39.298Z,86.40
2022-12-23T07:07:32.477Z,86.30
2022-12-23T07:10:02.467Z,86.10
2022-12-23T07:12:34.457Z,86.30
2022-12-23T07:15:07.014Z,86.40
2022-12-23T07:17:45.575Z,86.30
2022-12-23T07:20:15.535Z,86.20
2022-12-23T07:22:45.224Z,86.00
2022-12-23T07:25:20.086Z,86.20
2022-12-23T07:27:59.997Z,86.30
2022-12-23T07:30:32.044Z,86.30
2022-12-23T07:33:02.504Z,86.30
2022-12-23T07:35:34.015Z,86.30
2022-12-23T07:38:09.574Z,86.40
2022-12-23T07:40:36.999Z,86.30
2022-12-23T07:43:04.362Z,86.30
2022-12-23T07:45:31.859Z,86.40
2022-12-23T07:48:04.267Z,86.20
2022-12-23T07:50:38.160Z,86.30
2022-12-23T07:53:05.396Z,86.30
2022-12-23T07:55:32.469Z,86.10
2022-12-23T07:58:01.834Z,86.20
2022-12-23T08:00:29.031Z,86.20
2022-12-23T08:02:56.197Z,86.10
2022-12-23T08:05:23.535Z,86.10
2022-12-23T08:07:52.218Z,86.10
2022-12-23T08:10:19.551Z,85.90
2022-12-23T08:12:46.683Z,86.00
2022-12-23T08:15:14.139Z,86.00
2022-12-23T08:17:41.314Z,85.80
2022-12-23T08:20:09.110Z,85.90
2022-12-23T08:22:36.330Z,86.00
2022-12-23T08:25:03.845Z,85.90
2022-12-23T08:27:30.986Z,85.80
2022-12-23T08:29:58.181Z,85.90
2022-12-23T08:32:38.722Z,85.80
2022-12-23T08:35:14.662Z,85.90
2022-12-23T08:37:49.221Z,85.90
2022-12-23T08:40:22.528Z,85.80
2022-12-23T08:43:05.420Z,85.70
2022-12-23T08:45:39.980Z,85.90
2022-12-23T08:48:20.609Z,85.90
2022-12-23T08:50:50.697Z,86.20
2022-12-23T08:53:17.902Z,86.10
2022-12-23T08:55:48.080Z,86.00
2022-12-23T08:58:16.128Z,86.00
2022-12-23T09:00:43.447Z,86.20
2022-12-23T09:03:10.763Z,86.30
2022-12-23T09:05:42.255Z,86.50
2022-12-23T09:08:09.715Z,86.50
2022-12-23T09:10:44.738Z,86.70
2022-12-23T09:13:16.353Z,86.80
2022-12-23T09:15:49.757Z,86.90
2022-12-23T09:18:16.932Z,86.90
2022-12-23T09:20:44.130Z,87.00
2022-12-23T09:23:11.228Z,87.10
2022-12-23T09:25:38.736Z,87.30
2022-12-23T09:28:07.338Z,87.40
2022-12-23T09:30:34.417Z,87.40
2022-12-23T09:33:01.519Z,87.30
2022-12-23T09:35:28.594Z,87.20
2022-12-23T09:37:56.557Z,87.30
2022-12-23T09:40:23.782Z,87.30
2022-12-23T09:42:53.565Z,87.00
2022-12-23T09:46:03.405Z,86.60
2022-12-23T09:48:41.149Z,86.80
2022-12-23T09:51:10.886Z,86.90
2022-12-23T09:53:56.852Z,87.10
2022-12-23T09:56:52.442Z,87.10
2022-12-23T09:59:25.499Z,87.00
2022-12-23T10:02:00.105Z,87.20
2022-12-23T10:05:03.699Z,87.10
2022-12-23T10:07:54.986Z,87.10
2022-12-23T10:10:33.703Z,87.20
2022-12-23T10:13:06.016Z,87.20
2022-12-23T10:15:48.640Z,87.20
2022-12-23T10:18:45.211Z,87.30
2022-12-23T10:21:49.439Z,87.40
2022-12-23T10:24:35.347Z,87.30
2022-12-23T10:27:32.708Z,87.40
2022-12-23T10:30:51.496Z,87.40
2022-12-23T10:33:20.153Z,87.10
2022-12-23T10:36:17.304Z,86.90
2022-12-23T10:39:03.086Z,87.00
2022-12-23T10:41:39.309Z,87.20
2022-12-23T10:44:28.693Z,87.40
2022-12-23T10:47:40.310Z,87.50
2022-12-23T10:50:29.716Z,87.30
2022-12-23T10:53:01.522Z,87.10
2022-12-23T10:55:34.375Z,87.20
2022-12-23T10:58:18.362Z,87.60
2022-12-23T11:00:56.337Z,87.80
2022-12-23T11:03:34.227Z,87.70
2022-12-23T11:06:02.394Z,87.80
2022-12-23T11:08:31.550Z,87.80
2022-12-23T11:11:03.756Z,87.80
2022-12-23T11:13:40.531Z,88.00
2022-12-23T11:16:18.526Z,87.90
2022-12-23T11:19:16.080Z,88.00
2022-12-23T11:21:55.819Z,88.10
2022-12-23T11:24:24.802Z,88.00
2022-12-23T11:27:04.039Z,88.10
2022-12-23T11:29:36.228Z,88.30
2022-12-23T11:32:17.506Z,88.40
2022-12-23T11:34:46.909Z,88.40
2022-12-23T11:37:41.227Z,88.40
2022-12-23T11:40:28.699Z,88.40
2022-12-23T11:43:03.605Z,88.50
2022-12-23T11:45:36.934Z,88.50
2022-12-23T11:48:06.835Z,88.60
2022-12-23T11:50:38.995Z,88.70
2022-12-23T11:53:25.123Z,88.90
2022-12-23T11:56:09.696Z,88.90
2022-12-23T11:59:07.437Z,88.90
2022-12-23T12:01:36.085Z,89.00
2022-12-23T12:04:09.618Z,88.90
2022-12-23T12:06:43.038Z,88.80
2022-12-23T12:09:13.572Z,88.80
2022-12-23T12:11:50.074Z,88.60
2022-12-23T12:14:56.829Z,88.60
2022-12-23T12:17:40.802Z,88.60
2022-12-23T12:20:38.861Z,88.40
2022-12-23T12:23:38.088Z,88.40
2022-12-23T12:26:25.452Z,88.20
2022-12-23T12:29:32.162Z,87.90
2022-12-23T12:32:01.753Z,88.00
2022-12-23T12:34:37.641Z,87.60
2022-12-23T12:37:37.245Z,87.10
2022-12-23T12:40:25.818Z,86.90
2022-12-23T12:43:17.326Z,86.70
2022-12-23T12:46:08.832Z,86.20
2022-12-23T12:49:05.757Z,86.20
2022-12-23T12:51:58.304Z,85.80
2022-12-23T12:54:37.239Z,85.70
2022-12-23T12:57:04.692Z,85.40
2022-12-23T12:59:35.692Z,85.10
2022-12-23T13:02:35.486Z,85.50
2022-12-23T13:05:11.461Z,86.10
2022-12-23T13:08:13.782Z,86.60
2022-12-23T13:10:55.745Z,87.00
2022-12-23T13:14:15.872Z,87.10
2022-12-23T13:16:54.152Z,87.00
2022-12-23T13:19:41.912Z,87.10
2022-12-23T13:22:18.207Z,87.00
2022-12-23T13:25:00.562Z,86.90
2022-12-23T13:27:34.918Z,87.10
2022-12-23T13:30:14.304Z,87.20
2022-12-23T13:33:28.170Z,87.30
2022-12-23T13:36:33.626Z,87.10
2022-12-23T13:39:28.157Z,87.10
2022-12-23T13:42:04.653Z,86.60
2022-12-23T13:44:34.468Z,86.30
2022-12-23T13:47:07.653Z,86.40
2022-12-23T13:49:47.090Z,86.30
2022-12-23T13:53:00.099Z,86.40
2022-12-23T13:55:42.245Z,86.80
2022-12-23T13:58:23.089Z,86.40
2022-12-23T14:01:30.504Z,85.90
2022-12-23T14:04:37.881Z,86.10
2022-12-23T14:07:21.111Z,85.70
2022-12-23T14:10:13.208Z,85.50
2022-12-23T14:12:42.704Z,85.20
2022-12-23T14:15:58.647Z,84.70
2022-12-23T14:19:07.974Z,84.50
2022-12-23T14:21:46.874Z,84.40
2022-12-23T14:24:49.152Z,84.10
2022-12-23T14:27:45.828Z,84.10
2022-12-23T14:30:42.744Z,84.50
2022-12-23T14:33:18.799Z,84.90
2022-12-23T14:35:45.865Z,85.30
2022-12-23T14:38:16.069Z,84.90
2022-12-23T14:40:43.119Z,84.40
2022-12-23T14:43:22.871Z,83.50
2022-12-23T14:46:01.413Z,84.30
2022-12-23T14:48:34.772Z,83.30
2022-12-23T14:51:38.004Z,82.90
2022-12-23T14:54:14.386Z,82.10
2022-12-23T14:56:42.045Z,80.10
2022-12-23T14:59:39.095Z,80.50
2022-12-23T15:02:09.176Z,80.00
2022-12-23T15:04:55.009Z,79.70
2022-12-23T15:07:34.837Z,80.00
2022-12-23T15:10:04.758Z,79.50
2022-12-23T15:12:36.772Z,78.70
2022-12-23T15:15:27.014Z,78.80
2022-12-23T15:18:13.594Z,78.90
2022-12-23T15:20:47.427Z,78.40
2022-12-23T15:23:17.971Z,78.90
2022-12-23T15:25:49.041Z,79.30
2022-12-23T15:28:23.598Z,78.10
2022-12-23T15:30:58.547Z,77.70
2022-12-23T15:36:34.572Z,78.20
2022-12-23T15:39:08.725Z,76.80
2022-12-23T15:41:47.167Z,77.40
2022-12-23T15:44:23.684Z,77.60
2022-12-23T15:46:52.120Z,79.00
2022-12-23T15:49:21.784Z,79.00
2022-12-23T15:52:11.116Z,79.30
2022-12-23T15:54:55.543Z,79.90
2022-12-23T15:57:27.388Z,79.50
2022-12-23T15:59:54.863Z,79.30
2022-12-23T16:03:00.459Z,79.40
2022-12-23T16:05:36.954Z,79.90
2022-12-23T16:08:29.070Z,79.70
2022-12-23T16:11:19.933Z,78.90
2022-12-23T16:14:03.176Z,78.70
2022-12-23T16:16:43.649Z,78.50
2022-12-23T16:19:35.929Z,78.80
2022-12-23T16:22:30.221Z,78.10
2022-12-23T16:25:26.615Z,78.90
2022-12-23T16:28:04.737Z,78.90
2022-12-23T16:30:36.207Z,79.40
2022-12-23T16:33:27.983Z,79.30
2022-12-23T16:35:56.149Z,78.70
2022-12-23T16:38:26.591Z,78.80
2022-12-23T16:40:57.380Z,78.80
2022-12-23T16:43:25.609Z,79.20
2022-12-23T16:45:56.296Z,78.90
2022-12-23T16:48:39.256Z,79.70
2022-12-23T16:51:11.767Z,79.60
2022-12-23T16:53:39.269Z,79.70
2022-12-23T16:56:15.313Z,79.60
2022-12-23T16:58:43.616Z,79.40
2022-12-23T17:01:39.167Z,79.40
2022-12-23T17:04:07.679Z,79.30
2022-12-23T17:06:36.153Z,79.60
2022-12-23T17:09:06.062Z,79.70
2022-12-23T17:11:37.894Z,79.30
2022-12-23T17:14:11.901Z,79.60
2022-12-23T17:16:42.889Z,79.80
2022-12-23T17:19:11.469Z,80.00
2022-12-23T17:21:40.536Z,79.60
2022-12-23T17:24:26.086Z,79.30
2022-12-23T17:26:54.852Z,79.40
2022-12-23T17:29:22.359Z,79.10
2022-12-23T17:31:50.941Z,79.20
2022-12-23T17:34:21.794Z,79.40
2022-12-23T17:36:50.785Z,79.00
2022-12-23T17:39:19.742Z,79.30
2022-12-23T17:41:47.747Z,79.40
2022-12-23T17:44:17.296Z,79.50
2022-12-23T17:46:46.558Z,79.00
2022-12-23T17:49:14.053Z,78.50
2022-12-23T17:51:42.454Z,77.90
2022-12-23T17:54:24.494Z,78.90
2022-12-23T17:56:52.180Z,78.80
2022-12-23T17:59:20.515Z,78.30
2022-12-23T18:01:48.030Z,78.70
2022-12-23T18:04:15.668Z,78.20
2022-12-23T18:06:42.744Z,78.50
2022-12-23T18:09:09.866Z,79.10
2022-12-23T18:11:42.366Z,79.20
2022-12-23T18:14:28.014Z,78.50
2022-12-23T18:16:55.363Z,78.70
2022-12-23T18:19:22.602Z,79.10
2022-12-23T18:21:51.495Z,79.50
2022-12-23T18:24:18.792Z,79.50
2022-12-23T18:26:46.205Z,79.80
2022-12-23T18:29:14.163Z,79.20
2022-12-23T18:31:52.060Z,78.80
2022-12-23T18:34:20.272Z,78.70
2022-12-23T18:36:48.377Z,78.80
2022-12-23T18:39:15.762Z,78.10
2022-12-23T18:41:42.833Z,77.60
2022-12-23T18:44:21.114Z,77.80
2022-12-23T18:46:49.362Z,77.30
2022-12-23T18:49:16.567Z,76.40
2022-12-23T18:51:43.791Z,77.00
2022-12-23T18:54:15.820Z,76.60
2022-12-23T18:56:43.483Z,75.90
2022-12-23T18:59:29.174Z,75.50
2022-12-23T19:01:57.707Z,76.20
2022-12-23T19:04:28.448Z,75.80
2022-12-23T19:06:56.964Z,76.00
2022-12-23T19:09:25.231Z,75.50
2022-12-23T19:11:54.201Z,75.80
2022-12-23T19:14:21.780Z,76.10
2022-12-23T19:16:51.898Z,76.90
2022-12-23T19:19:21.369Z,76.90
2022-12-23T19:21:48.560Z,77.10
2022-12-23T19:24:15.683Z,76.80
2022-12-23T19:26:42.934Z,77.10
2022-12-23T19:29:10.097Z,76.90
2022-12-23T19:31:37.198Z,77.20
2022-12-23T19:34:06.977Z,76.40
2022-12-23T19:36:37.042Z,76.40
2022-12-23T19:39:04.421Z,76.30
2022-12-23T19:41:31.550Z,76.20
2022-12-23T19:43:58.658Z,76.20
2022-12-23T19:46:25.972Z,76.10
2022-12-23T19:48:53.424Z,76.50
2022-12-23T19:51:20.805Z,76.00
2022-12-23T19:53:53.487Z,76.10
2022-12-23T19:56:21.561Z,75.90
2022-12-23T19:58:50.209Z,75.50
2022-12-23T20:01:25.000Z,75.50
2022-12-23T20:03:55.122Z,75.50
2022-12-23T20:06:35.492Z,75.10
2022-12-23T20:09:06.461Z,75.20
2022-12-23T20:11:40.595Z,75.60
2022-12-23T20:14:08.973Z,75.30
2022-12-23T20:16:37.755Z,75.30
2022-12-23T20:19:05.327Z,75.50
2022-12-23T20:21:34.007Z,75.50
2022-12-23T20:24:01.581Z,75.70
2022-12-23T20:26:29.256Z,76.10
2022-12-23T20:28:57.863Z,76.70
2022-12-23T20:31:31.168Z,76.80
2022-12-23T20:33:58.942Z,76.80
2022-12-23T20:36:29.449Z,76.80
2022-12-23T20:38:57.324Z,76.80
2022-12-23T20:41:29.782Z,76.60
2022-12-23T20:44:32.425Z,76.90
2022-12-23T20:46:47.186Z,76.80
2022-12-23T20:49:14.413Z,77.00
2022-12-23T20:51:41.567Z,77.40
2022-12-23T20:54:09.306Z,77.10
2022-12-23T20:56:36.489Z,77.50
2022-12-23T20:59:04.021Z,77.20
2022-12-23T21:01:38.260Z,77.60
2022-12-23T21:04:12.784Z,77.20
2022-12-23T21:06:40.101Z,77.30
2022-12-23T21:09:09.771Z,77.70
2022-12-23T21:11:40.920Z,77.80
2022-12-23T21:14:08.225Z,77.50
2022-12-23T21:16:37.545Z,76.90
2022-12-23T21:19:07.946Z,77.10
2022-12-23T21:21:38.078Z,76.70
2022-12-23T21:24:05.980Z,76.80
2022-12-23T21:26:34.711Z,77.00
2022-12-23T21:29:04.981Z,77.30
2022-12-23T21:31:35.928Z,77.60
2022-12-23T21:34:03.798Z,77.60
2022-12-23T21:36:35.651Z,77.90
2022-12-23T21:39:04.453Z,78.20
2022-12-23T21:41:36.202Z,78.10
2022-12-23T21:44:05.970Z,78.20
2022-12-23T21:46:34.334Z,78.30
2022-12-23T21:49:03.457Z,78.50
2022-12-23T21:51:39.572Z,78.50
2022-12-23T21:54:12.526Z,78.70
2022-12-23T21:56:40.966Z,79.20
2022-12-23T21:59:13.410Z,79.00
2022-12-23T22:01:45.634Z,79.10
2022-12-23T22:04:14.398Z,78.80
2022-12-23T22:06:46.891Z,78.90
2022-12-23T22:09:19.886Z,78.50
2022-12-23T22:11:48.528Z,78.50
2022-12-23T22:14:19.359Z,78.70
2022-12-23T22:16:46.582Z,78.30
2022-12-23T22:19:13.881Z,78.40
2022-12-23T22:21:42.648Z,78.30
2022-12-23T22:24:11.187Z,78.30
2022-12-23T22:26:40.225Z,78.00
2022-12-23T22:29:07.419Z,78.20
2022-12-23T22:31:37.512Z,78.00
2022-12-23T22:34:05.700Z,78.40
2022-12-23T22:36:33.475Z,78.60
2022-12-23T22:39:01.945Z,78.60
2022-12-23T22:41:30.370Z,78.40
2022-12-23T22:43:59.103Z,78.40
2022-12-23T22:46:27.901Z,78.20
2022-12-23T22:48:55.362Z,78.50
2022-12-23T22:51:29.471Z,78.20
2022-12-23T22:53:57.625Z,78.40
2022-12-23T22:56:26.200Z,78.40
2022-12-23T22:58:54.217Z,77.90
2022-12-23T23:01:23.961Z,78.30
2022-12-23T23:03:57.328Z,78.40
2022-12-23T23:06:39.394Z,78.30
2022-12-23T23:09:10.028Z,78.70
2022-12-23T23:11:37.103Z,78.70
2022-12-23T23:14:04.819Z,78.80
2022-12-23T23:16:32.159Z,79.00
2022-12-23T23:18:59.961Z,79.10
2022-12-23T23:21:27.477Z,79.40
2022-12-23T23:23:54.593Z,79.70
2022-12-23T23:26:26.681Z,79.90
2022-12-23T23:28:55.611Z,80.00
2022-12-23T23:34:11.384Z,80.40
2022-12-23T23:36:38.793Z,80.90
2022-12-23T23:39:06.017Z,81.00
2022-12-23T23:41:33.245Z,80.80
2022-12-23T23:44:00.318Z,80.70
2022-12-23T23:46:27.566Z,80.70
2022-12-23T23:48:54.705Z,80.80
2022-12-23T23:51:21.777Z,81.10
2022-12-23T23:53:49.204Z,81.40
2022-12-23T23:56:21.963Z,81.40
2022-12-23T23:58:52.224Z,81.50
